Time;durP1;ratioP1;P1;durP2;ratioP2;P2;SDS_P1;SDS_P2;PMS_P1;PMS_P2;Temp;Humidity;BMP_temperature;BMP_pressure;BME280_temperature;BME280_humidity;BME280_pressure;Samples;Min_cycle;Max_cycle;Signal;HPM_P1;HPM_P2
2022/04/30 00:00:51;;;;;;;17.45;9.70;;;6.30;90.60;;;;;;4976401;28;20026;-87
2022/04/30 00:03:17;;;;;;;19.88;10.15;;;6.20;90.80;;;;;;4976171;28;20034;-88
2022/04/30 00:05:43;;;;;;;19.00;10.40;;;6.10;91.00;;;;;;4976395;28;20106;-87
2022/04/30 00:08:08;;;;;;;17.13;9.85;;;6.00;91.20;;;;;;4992773;28;20040;-86
2022/04/30 00:10:37;;;;;;;17.17;10.05;;;5.90;91.50;;;;;;4976593;28;20019;-87
2022/04/30 00:13:13;;;;;;;18.77;10.48;;;5.90;91.70;;;;;;4976503;28;20122;-88
2022/04/30 00:15:39;;;;;;;19.27;10.43;;;5.90;92.10;;;;;;4976414;28;20109;-87
2022/04/30 00:18:06;;;;;;;16.52;9.63;;;5.80;92.30;;;;;;4979031;28;20085;-88
2022/04/30 00:20:36;;;;;;;18.98;10.40;;;5.80;92.50;;;;;;4988045;28;20120;-89
2022/04/30 00:23:02;;;;;;;17.87;10.83;;;5.70;92.60;;;;;;5004883;28;20022;-88
2022/04/30 00:25:28;;;;;;;21.73;10.00;;;5.70;92.90;;;;;;4983590;28;20034;-89
2022/04/30 00:27:53;;;;;;;18.83;10.38;;;5.60;93.10;;;;;;4981266;28;20034;-89
2022/04/30 00:30:19;;;;;;;18.10;10.00;;;5.60;93.30;;;;;;4980441;28;20558;-89
2022/04/30 00:32:46;;;;;;;16.33;10.13;;;5.60;93.50;;;;;;4980938;28;20040;-87
2022/04/30 00:35:13;;;;;;;15.32;9.45;;;5.50;93.60;;;;;;4980905;28;20514;-88
2022/04/30 00:37:38;;;;;;;16.90;10.38;;;5.40;93.80;;;;;;4981059;28;20030;-88
2022/04/30 00:40:06;;;;;;;22.63;9.00;;;5.40;94.10;;;;;;4981059;28;20479;-88
2022/04/30 00:42:32;;;;;;;18.38;10.25;;;5.30;94.30;;;;;;4980892;28;20157;-89
2022/04/30 00:44:57;;;;;;;19.77;11.65;;;5.30;94.60;;;;;;4980481;28;20034;-88
2022/04/30 00:47:24;;;;;;;18.55;10.02;;;5.20;94.80;;;;;;4980618;28;20030;-87
2022/04/30 00:49:50;;;;;;;27.77;10.52;;;5.20;95.00;;;;;;4980653;28;20116;-89
2022/04/30 00:52:17;;;;;;;20.00;10.48;;;5.10;95.20;;;;;;4980551;28;20069;-88
2022/04/30 00:54:49;;;;;;;15.60;9.55;;;5.10;95.50;;;;;;4995928;28;20491;-88
2022/04/30 00:57:18;;;;;;;19.45;10.43;;;5.00;95.70;;;;;;4979510;28;20033;-88
2022/04/30 00:59:44;;;;;;;17.98;10.02;;;5.00;95.90;;;;;;4979082;28;20031;-87
2022/04/30 01:02:11;;;;;;;21.25;10.27;;;4.90;96.00;;;;;;4979407;28;20113;-87
2022/04/30 01:04:37;;;;;;;20.45;10.38;;;4.90;96.40;;;;;;4978985;28;20485;-87
2022/04/30 01:07:06;;;;;;;20.63;11.50;;;4.80;96.80;;;;;;4979040;28;20026;-88
2022/04/30 01:09:35;;;;;;;21.23;10.23;;;4.80;96.90;;;;;;4995556;28;20125;-88
2022/04/30 01:12:04;;;;;;;19.45;9.75;;;4.70;97.20;;;;;;4978751;28;20030;-87
2022/04/30 01:14:34;;;;;;;23.10;10.20;;;4.70;97.60;;;;;;4979042;28;20035;-87
2022/04/30 01:17:02;;;;;;;27.13;12.05;;;4.70;98.00;;;;;;4979035;28;20034;-87
2022/04/30 01:19:28;;;;;;;21.42;11.00;;;4.70;98.20;;;;;;4979161;28;20112;-87
2022/04/30 01:21:58;;;;;;;19.60;10.05;;;4.70;98.40;;;;;;4979325;28;20029;-88
2022/04/30 01:24:28;;;;;;;20.63;9.90;;;4.60;98.60;;;;;;4979196;28;20034;-88
2022/04/30 01:26:55;;;;;;;19.33;10.73;;;4.50;98.80;;;;;;4979071;28;20137;-88
2022/04/30 01:29:23;;;;;;;20.23;10.57;;;4.50;99.10;;;;;;4979231;28;20034;-88
2022/04/30 01:37:28;;;;;;;21.92;10.95;;;4.30;99.80;;;;;;4996273;28;20034;-87
2022/04/30 01:40:07;;;;;;;19.73;10.35;;;4.30;99.90;;;;;;4978851;28;20022;-88
2022/04/30 01:43:01;;;;;;;20.52;10.88;;;4.30;99.90;;;;;;4984475;28;20069;-88
2022/04/30 01:45:28;;;;;;;22.15;10.30;;;4.30;99.90;;;;;;4984965;28;20098;-88
2022/04/30 01:47:56;;;;;;;20.35;10.55;;;4.20;99.90;;;;;;4980426;28;20023;-88
2022/04/30 01:50:22;;;;;;;19.25;10.68;;;4.30;99.90;;;;;;4980085;28;20092;-88
2022/04/30 01:52:48;;;;;;;18.52;10.30;;;4.30;99.90;;;;;;4980123;28;20527;-88
2022/04/30 01:55:14;;;;;;;17.52;10.55;;;4.30;99.90;;;;;;4979921;28;20018;-89
2022/04/30 01:57:41;;;;;;;21.35;10.68;;;4.20;99.90;;;;;;4979793;28;20030;-88
2022/04/30 02:00:09;;;;;;;23.25;10.68;;;4.20;99.90;;;;;;4996208;28;20104;-89
2022/04/30 02:02:36;;;;;;;19.77;10.27;;;4.20;99.90;;;;;;4979997;28;20402;-88
2022/04/30 02:05:06;;;;;;;20.70;10.77;;;4.20;99.90;;;;;;4979139;28;20117;-88
2022/04/30 02:07:37;;;;;;;21.63;11.25;;;4.20;99.90;;;;;;4979431;28;20026;-88
2022/04/30 02:10:05;;;;;;;19.23;10.27;;;4.10;99.90;;;;;;4987381;28;20061;-88
2022/04/30 02:12:32;;;;;;;19.60;10.40;;;4.10;99.90;;;;;;4984763;28;20026;-88
2022/04/30 02:14:59;;;;;;;18.50;9.70;;;4.10;99.90;;;;;;4997046;28;20125;-89
2022/04/30 02:17:26;;;;;;;20.58;10.82;;;4.10;99.90;;;;;;4979301;28;20110;-88
2022/04/30 02:22:40;;;;;;;20.05;10.57;;;4.00;99.90;;;;;;4995795;28;20105;-88
2022/04/30 02:25:10;;;;;;;18.33;10.55;;;4.00;99.90;;;;;;4978138;28;20479;-89
2022/04/30 02:27:38;;;;;;;23.17;10.90;;;4.00;99.90;;;;;;4978290;28;20030;-87
2022/04/30 02:30:10;;;;;;;18.00;10.23;;;3.90;99.90;;;;;;4978008;28;20547;-87
2022/04/30 02:32:46;;;;;;;17.90;10.45;;;3.90;99.90;;;;;;4993943;28;20117;-88
2022/04/30 02:35:19;;;;;;;21.80;10.90;;;3.90;99.90;;;;;;4978469;28;20045;-88
2022/04/30 02:37:45;;;;;;;20.23;11.38;;;3.80;99.90;;;;;;4978519;28;20029;-87
2022/04/30 02:40:13;;;;;;;21.42;10.68;;;3.80;99.90;;;;;;4961855;28;20034;-88
2022/04/30 02:42:39;;;;;;;18.40;10.52;;;3.70;99.90;;;;;;4977782;28;20029;-88
2022/04/30 02:45:06;;;;;;;20.15;11.15;;;3.70;99.90;;;;;;4977796;28;20472;-87
2022/04/30 02:47:31;;;;;;;21.67;11.15;;;3.60;99.90;;;;;;4994285;28;20038;-88
2022/04/30 02:49:57;;;;;;;22.60;11.50;;;3.60;99.90;;;;;;4977865;28;20500;-87
2022/04/30 02:52:23;;;;;;;19.33;10.43;;;3.50;99.90;;;;;;4978061;28;20030;-88
2022/04/30 02:54:49;;;;;;;24.20;11.63;;;3.50;99.90;;;;;;4977771;28;20475;-88
2022/04/30 02:57:14;;;;;;;18.98;10.23;;;3.50;99.90;;;;;;4977879;28;20018;-88
2022/04/30 02:59:55;;;;;;;22.25;11.30;;;3.40;99.90;;;;;;4978395;28;20113;-87
2022/04/30 03:02:22;;;;;;;21.40;11.50;;;3.50;99.90;;;;;;4981365;28;20029;-88
2022/04/30 03:04:51;;;;;;;24.40;11.43;;;3.50;99.90;;;;;;5002184;28;20062;-89
2022/04/30 03:07:22;;;;;;;21.80;11.35;;;3.50;99.90;;;;;;4984537;28;20018;-88
2022/04/30 03:09:49;;;;;;;24.17;11.00;;;3.50;99.90;;;;;;4997989;28;20034;-88
2022/04/30 03:12:16;;;;;;;19.92;10.57;;;3.50;99.90;;;;;;4996963;28;20093;-87
2022/04/30 03:14:43;;;;;;;20.80;11.45;;;3.40;99.90;;;;;;4996707;28;20033;-90
2022/04/30 03:22:52;;;;;;;22.35;12.00;;;3.30;99.90;;;;;;4955083;29;20047;-87
2022/04/30 03:25:22;;;;;;;24.05;10.70;;;3.30;99.90;;;;;;4939099;29;20031;-89
2022/04/30 03:27:48;;;;;;;22.75;11.32;;;3.30;99.90;;;;;;4939770;29;20078;-90
2022/04/30 03:30:15;;;;;;;23.75;11.60;;;3.20;99.90;;;;;;4938306;29;20024;-88
2022/04/30 03:32:42;;;;;;;21.02;11.18;;;3.20;99.90;;;;;;4938026;29;20032;-89
2022/04/30 03:35:09;;;;;;;22.13;11.60;;;3.10;99.90;;;;;;4938910;29;20032;-88
2022/04/30 03:37:35;;;;;;;24.65;12.65;;;3.10;99.90;;;;;;4938649;29;20020;-89
2022/04/30 03:40:01;;;;;;;22.98;11.27;;;3.00;99.90;;;;;;4939006;29;20046;-88
2022/04/30 03:42:28;;;;;;;19.67;10.18;;;3.10;99.90;;;;;;4939164;29;20031;-88
2022/04/30 03:44:53;;;;;;;22.55;11.32;;;3.00;99.90;;;;;;4939064;29;20087;-87
2022/04/30 03:47:20;;;;;;;23.30;11.68;;;3.00;99.90;;;;;;4938723;29;20022;-88
2022/04/30 03:49:46;;;;;;;22.70;11.55;;;3.00;99.90;;;;;;4939823;29;20038;-87
2022/04/30 03:52:12;;;;;;;27.13;11.63;;;2.90;99.90;;;;;;4940949;28;20059;-87
2022/04/30 03:54:39;;;;;;;25.30;12.02;;;2.90;99.90;;;;;;4940027;29;20328;-88
2022/04/30 03:57:06;;;;;;;27.52;13.18;;;2.90;99.90;;;;;;4939143;29;20044;-86
2022/04/30 03:59:33;;;;;;;23.45;12.35;;;2.80;99.90;;;;;;4997391;28;20030;-88
2022/04/30 04:01:59;;;;;;;23.10;12.13;;;2.70;99.90;;;;;;4999518;28;20021;-87
2022/04/30 04:04:26;;;;;;;28.92;12.15;;;2.70;99.90;;;;;;5008791;28;20061;-88
2022/04/30 04:06:53;;;;;;;26.95;12.15;;;2.60;99.90;;;;;;4994669;28;20018;-87
2022/04/30 04:09:19;;;;;;;26.90;12.85;;;2.60;99.90;;;;;;5008540;28;20053;-87
2022/04/30 04:11:45;;;;;;;26.90;11.20;;;2.60;99.90;;;;;;4995097;28;20042;-88
2022/04/30 04:19:39;;;;;;;26.08;10.57;;;2.50;99.90;;;;;;5013717;28;20085;-87
2022/04/30 04:22:04;;;;;;;25.17;11.45;;;2.40;99.90;;;;;;4994652;28;20400;-88
2022/04/30 04:27:17;;;;;;;22.10;11.07;;;2.40;99.90;;;;;;5013764;28;20049;-88
2022/04/30 04:29:46;;;;;;;24.15;12.02;;;2.40;99.90;;;;;;4996412;28;20098;-88
2022/04/30 04:32:13;;;;;;;24.65;11.00;;;2.40;99.90;;;;;;4994704;28;20053;-88
2022/04/30 04:34:38;;;;;;;23.88;11.68;;;2.40;99.90;;;;;;5011546;28;20038;-87
2022/04/30 04:37:04;;;;;;;25.00;11.88;;;2.50;99.90;;;;;;4994640;28;20443;-87
2022/04/30 04:39:30;;;;;;;26.42;11.85;;;2.40;99.90;;;;;;4994511;28;20042;-89
2022/04/30 04:41:56;;;;;;;23.30;11.85;;;2.50;99.90;;;;;;4984771;28;20026;-89
2022/04/30 04:44:22;;;;;;;27.92;12.68;;;2.40;99.90;;;;;;4991234;28;20101;-87
2022/04/30 04:46:50;;;;;;;27.48;12.32;;;2.40;99.90;;;;;;4992166;28;20029;-87
2022/04/30 04:49:19;;;;;;;25.40;11.25;;;2.40;99.90;;;;;;4972290;28;20026;-87
2022/04/30 04:51:45;;;;;;;24.33;11.18;;;2.40;99.90;;;;;;4999993;28;20053;-87
2022/04/30 04:54:10;;;;;;;21.30;11.15;;;2.40;99.90;;;;;;4986446;28;20058;-88
2022/04/30 04:56:39;;;;;;;22.88;10.80;;;2.40;99.90;;;;;;4988888;28;20033;-88
2022/04/30 04:59:05;;;;;;;23.13;12.25;;;2.40;99.90;;;;;;4989085;28;20038;-86
2022/04/30 05:01:31;;;;;;;23.45;11.50;;;2.30;99.90;;;;;;4988395;28;20026;-89
2022/04/30 05:03:56;;;;;;;23.08;11.23;;;2.30;99.90;;;;;;4981404;28;20096;-88
2022/04/30 05:06:22;;;;;;;28.73;12.75;;;2.30;99.90;;;;;;4997238;28;20066;-88
2022/04/30 05:08:48;;;;;;;22.73;11.73;;;2.20;99.90;;;;;;4984226;28;20030;-88
2022/04/30 05:11:13;;;;;;;24.63;12.57;;;2.20;99.90;;;;;;4985463;28;20049;-87
2022/04/30 05:13:39;;;;;;;26.67;11.15;;;2.20;99.90;;;;;;4984818;28;20045;-87
2022/04/30 05:16:05;;;;;;;24.52;11.63;;;2.20;99.90;;;;;;4982147;28;20034;-88
2022/04/30 05:18:31;;;;;;;27.08;13.20;;;2.10;99.90;;;;;;4982620;28;20026;-88
2022/04/30 05:20:57;;;;;;;24.02;11.60;;;2.10;99.90;;;;;;5001903;28;20042;-87
2022/04/30 05:23:22;;;;;;;23.25;11.15;;;2.10;99.90;;;;;;4998207;28;20050;-88
2022/04/30 05:25:49;;;;;;;27.52;12.98;;;2.00;99.90;;;;;;5014867;28;20080;-88
2022/04/30 05:28:15;;;;;;;31.17;12.32;;;2.00;99.90;;;;;;5011777;28;20034;-87
2022/04/30 05:30:41;;;;;;;30.63;13.32;;;2.10;99.90;;;;;;4995586;28;20053;-89
2022/04/30 05:33:08;;;;;;;33.35;12.65;;;2.10;99.90;;;;;;4993198;28;20495;-89
2022/04/30 05:35:33;;;;;;;23.75;11.85;;;2.10;99.90;;;;;;4991589;28;20026;-89
2022/04/30 05:37:59;;;;;;;28.60;12.13;;;2.20;99.90;;;;;;4991683;28;20127;-89
2022/04/30 05:40:25;;;;;;;26.73;13.15;;;2.20;99.90;;;;;;4992409;28;20053;-89
2022/04/30 05:42:50;;;;;;;22.63;11.68;;;2.30;99.90;;;;;;4996983;28;20030;-92
2022/04/30 05:45:16;;;;;;;24.92;11.30;;;2.30;99.90;;;;;;4997968;28;20027;-88
2022/04/30 05:47:42;;;;;;;29.15;14.30;;;2.40;99.90;;;;;;4993681;28;20135;-88
2022/04/30 05:50:09;;;;;;;27.55;12.20;;;2.40;99.90;;;;;;4997383;28;20042;-87
2022/04/30 05:52:35;;;;;;;22.15;11.02;;;2.40;99.90;;;;;;4992063;28;20034;-87
2022/04/30 05:55:04;;;;;;;25.60;11.43;;;2.40;99.90;;;;;;5010677;28;20069;-87
2022/04/30 05:57:32;;;;;;;22.40;11.65;;;2.50;99.90;;;;;;4979499;28;20027;-87
2022/04/30 05:59:58;;;;;;;26.70;12.38;;;2.50;99.90;;;;;;4991607;28;20137;-87
2022/04/30 06:02:24;;;;;;;29.55;13.32;;;2.50;99.90;;;;;;4975172;28;20507;-87
2022/04/30 06:04:50;;;;;;;24.50;12.48;;;2.50;99.90;;;;;;4974873;28;20094;-86
2022/04/30 06:07:18;;;;;;;24.45;12.38;;;2.50;99.90;;;;;;4977800;28;20022;-87
2022/04/30 06:09:45;;;;;;;25.65;12.32;;;2.50;99.90;;;;;;4981073;28;20061;-86
2022/04/30 06:12:10;;;;;;;25.98;12.32;;;2.50;99.90;;;;;;5013669;28;20038;-87
2022/04/30 06:14:36;;;;;;;24.75;12.80;;;2.50;99.90;;;;;;4987534;28;20034;-85
2022/04/30 06:17:03;;;;;;;25.40;12.65;;;2.60;99.90;;;;;;4987986;28;20044;-87
2022/04/30 06:19:28;;;;;;;29.83;12.65;;;2.60;99.90;;;;;;4981335;28;20069;-87
2022/04/30 06:21:54;;;;;;;30.08;13.32;;;2.70;99.90;;;;;;4980290;28;20180;-87
2022/04/30 06:24:20;;;;;;;30.83;12.50;;;2.70;99.90;;;;;;4980162;28;20018;-87
2022/04/30 06:26:45;;;;;;;26.42;12.45;;;2.80;99.90;;;;;;4979228;28;20042;-88
2022/04/30 06:29:13;;;;;;;26.85;12.40;;;2.80;99.90;;;;;;4995137;28;20085;-88
2022/04/30 06:31:38;;;;;;;26.48;11.88;;;2.80;99.90;;;;;;4978716;28;20037;-88
2022/04/30 06:34:05;;;;;;;24.08;11.18;;;2.90;99.90;;;;;;4988846;28;20045;-87
2022/04/30 06:36:32;;;;;;;25.58;12.30;;;3.00;99.90;;;;;;4964061;28;20485;-87
2022/04/30 06:38:57;;;;;;;26.00;11.85;;;3.00;99.90;;;;;;4981095;28;20524;-89
2022/04/30 06:41:23;;;;;;;22.13;11.68;;;3.10;99.90;;;;;;4975957;28;20058;-87
2022/04/30 06:43:50;;;;;;;27.40;12.27;;;3.20;99.90;;;;;;4996203;28;20027;-88
2022/04/30 06:46:17;;;;;;;24.67;12.18;;;3.20;99.90;;;;;;4980149;28;20049;-86
2022/04/30 06:48:46;;;;;;;22.73;12.25;;;3.30;99.90;;;;;;5000620;28;20082;-86
2022/04/30 06:51:12;;;;;;;25.58;11.50;;;3.30;99.90;;;;;;4978351;28;20082;-86
2022/04/30 06:59:10;;;;;;;23.02;11.80;;;3.70;99.90;;;;;;4991635;28;20510;-87
2022/04/30 07:01:52;;;;;;;28.90;13.35;;;3.70;99.90;;;;;;5000737;28;20030;-87
2022/04/30 07:04:18;;;;;;;23.75;11.82;;;3.90;99.90;;;;;;4981464;28;20034;-87
2022/04/30 07:06:47;;;;;;;21.77;11.57;;;4.00;99.90;;;;;;4972635;28;20023;-86
2022/04/30 07:09:13;;;;;;;24.38;11.90;;;4.10;99.90;;;;;;4987614;28;20094;-86
2022/04/30 07:11:39;;;;;;;26.10;12.00;;;4.20;99.90;;;;;;4976714;28;20631;-86
2022/04/30 07:14:06;;;;;;;26.75;12.15;;;4.30;99.90;;;;;;4990117;28;20033;-85
2022/04/30 07:16:32;;;;;;;24.48;11.20;;;4.40;99.90;;;;;;4997665;28;20506;-87
2022/04/30 07:19:01;;;;;;;25.00;12.13;;;4.50;99.90;;;;;;4976066;28;20043;-87
2022/04/30 07:21:28;;;;;;;25.08;11.40;;;4.60;99.90;;;;;;4977329;28;20027;-85
2022/04/30 07:23:54;;;;;;;26.17;12.48;;;4.70;99.90;;;;;;4978146;28;20046;-86
2022/04/30 07:26:20;;;;;;;23.95;11.68;;;4.90;99.90;;;;;;4978964;28;20014;-85
2022/04/30 07:28:51;;;;;;;21.70;11.60;;;5.00;99.90;;;;;;4968664;28;20029;-85
2022/04/30 07:31:19;;;;;;;24.92;12.20;;;5.10;99.90;;;;;;4966390;28;20046;-85
2022/04/30 07:33:46;;;;;;;23.15;11.30;;;5.20;99.90;;;;;;4993425;28;20089;-87
2022/04/30 07:36:12;;;;;;;20.50;11.45;;;5.30;99.90;;;;;;4979611;28;20041;-86
2022/04/30 07:38:41;;;;;;;24.73;10.25;;;5.50;99.90;;;;;;4970267;28;20030;-86
2022/04/30 07:41:07;;;;;;;22.88;11.07;;;5.60;99.90;;;;;;4972362;28;20021;-85
2022/04/30 07:43:33;;;;;;;19.00;10.38;;;5.80;99.90;;;;;;4960806;28;20030;-86
2022/04/30 07:45:58;;;;;;;20.92;9.90;;;5.90;99.90;;;;;;4977773;28;20030;-87
2022/04/30 07:48:24;;;;;;;21.15;9.80;;;6.10;99.90;;;;;;4980270;28;20029;-86
2022/04/30 07:50:51;;;;;;;18.35;9.60;;;6.20;99.90;;;;;;4980106;28;20516;-87
2022/04/30 07:53:17;;;;;;;22.70;10.43;;;6.30;99.90;;;;;;4997519;28;20031;-87
2022/04/30 07:55:43;;;;;;;19.90;10.68;;;6.50;99.90;;;;;;4972779;28;20113;-87
2022/04/30 07:58:09;;;;;;;18.23;10.68;;;6.60;99.90;;;;;;4980950;28;20018;-87
2022/04/30 08:00:35;;;;;;;22.38;10.73;;;6.80;99.90;;;;;;4982708;28;20026;-86
2022/04/30 08:03:01;;;;;;;22.58;10.88;;;7.00;99.90;;;;;;4976190;28;20022;-85
2022/04/30 08:05:28;;;;;;;21.15;10.18;;;7.20;99.90;;;;;;4984409;28;20026;-86
2022/04/30 08:07:55;;;;;;;18.20;10.02;;;7.30;99.90;;;;;;4977762;28;20019;-85
2022/04/30 08:10:21;;;;;;;23.48;10.75;;;7.50;99.90;;;;;;4973274;28;20033;-86
2022/04/30 08:12:50;;;;;;;17.60;9.25;;;7.70;99.90;;;;;;4970480;28;20049;-88
2022/04/30 08:15:16;;;;;;;18.70;9.02;;;7.90;99.90;;;;;;4981197;28;20026;-86
2022/04/30 08:17:42;;;;;;;18.02;9.13;;;8.10;99.90;;;;;;4983927;28;20115;-86
2022/04/30 08:20:09;;;;;;;16.33;8.65;;;8.30;99.90;;;;;;4986799;28;20050;-87
2022/04/30 08:22:35;;;;;;;19.27;8.05;;;8.50;99.90;;;;;;4980869;28;20046;-87
2022/04/30 08:25:02;;;;;;;16.00;8.25;;;8.70;99.90;;;;;;4984289;28;20038;-85
2022/04/30 08:27:28;;;;;;;16.92;8.85;;;8.90;99.90;;;;;;5003016;28;20081;-87
2022/04/30 08:29:54;;;;;;;11.90;7.03;;;9.10;99.90;;;;;;4993730;28;20031;-86
2022/04/30 08:32:26;;;;;;;13.48;7.18;;;9.30;99.90;;;;;;4996433;28;20018;-86
2022/04/30 08:34:53;;;;;;;12.40;6.65;;;9.50;99.90;;;;;;4991906;28;20042;-86
2022/04/30 08:37:19;;;;;;;13.25;6.88;;;9.70;99.90;;;;;;5007251;28;20030;-86
2022/04/30 08:39:45;;;;;;;14.35;6.70;;;9.90;99.90;;;;;;4994336;28;20121;-86
2022/04/30 08:42:13;;;;;;;10.18;6.30;;;10.10;99.90;;;;;;5001104;28;20014;-86
2022/04/30 08:44:39;;;;;;;10.60;5.97;;;10.40;99.90;;;;;;4999992;28;20021;-88
2022/04/30 08:47:09;;;;;;;9.02;5.20;;;10.60;99.90;;;;;;5008215;28;20041;-90
2022/04/30 08:49:35;;;;;;;11.70;6.20;;;10.80;99.90;;;;;;5026931;28;20033;-89
2022/04/30 08:52:01;;;;;;;12.32;5.70;;;10.90;99.90;;;;;;5000898;28;20050;-86
2022/04/30 08:54:26;;;;;;;13.35;6.03;;;11.10;99.70;;;;;;5000135;28;20045;-86
2022/04/30 08:56:54;;;;;;;15.68;7.50;;;11.30;98.80;;;;;;4990875;28;20015;-89
2022/04/30 08:59:20;;;;;;;14.57;6.00;;;11.50;97.90;;;;;;4990136;28;20061;-85
2022/04/30 09:01:51;;;;;;;8.48;4.88;;;11.70;97.00;;;;;;4991087;28;20090;-86
2022/04/30 09:04:17;;;;;;;;;;;12.00;96.00;;;;;;4993779;28;20056;-87
2022/04/30 09:06:48;;;;;;;8.23;4.47;;;12.30;95.20;;;;;;4998452;28;19914;-87
2022/04/30 09:09:28;;;;;;;12.60;4.45;;;12.50;94.30;;;;;;4988248;28;20670;-86
2022/04/30 09:12:16;;;;;;;8.55;4.30;;;12.70;93.00;;;;;;4984128;28;20039;-86
2022/04/30 09:14:42;;;;;;;6.45;4.15;;;13.10;92.00;;;;;;4984114;28;20085;-86
2022/04/30 09:17:12;;;;;;;13.02;4.68;;;13.20;90.80;;;;;;4979206;28;20033;-86
2022/04/30 09:19:49;;;;;;;9.27;3.72;;;13.40;89.70;;;;;;4984792;28;20051;-88
2022/04/30 09:22:16;;;;;;;6.93;3.45;;;13.60;87.70;;;;;;5006615;28;20031;-88
2022/04/30 09:24:49;;;;;;;8.07;3.78;;;13.90;86.20;;;;;;4987533;28;20019;-86
2022/04/30 09:27:18;;;;;;;8.63;3.70;;;14.00;84.50;;;;;;4997718;28;20030;-88
2022/04/30 09:29:45;;;;;;;9.93;3.97;;;14.20;83.40;;;;;;4991602;28;20127;-89
2022/04/30 09:32:22;;;;;;;9.23;4.15;;;14.50;82.40;;;;;;4960450;28;20038;-89
2022/04/30 09:37:41;;;;;;;10.10;3.83;;;14.80;79.90;;;;;;5009582;28;20033;-88
2022/04/30 09:40:20;;;;;;;7.43;3.90;;;15.00;78.80;;;;;;4992684;28;20030;-88
2022/04/30 09:42:47;;;;;;;9.63;4.40;;;15.10;77.20;;;;;;5005562;28;20035;-87
2022/04/30 09:45:32;;;;;;;16.23;4.28;;;15.10;75.40;;;;;;4995568;28;20050;-89
2022/04/30 09:53:57;;;;;;;8.10;3.28;;;15.50;72.40;;;;;;4947362;29;20122;-89
2022/04/30 09:56:45;;;;;;;4.93;3.10;;;15.60;71.00;;;;;;4946532;29;20044;-89
2022/04/30 09:59:13;;;;;;;7.47;2.72;;;15.80;70.10;;;;;;4945584;29;20031;-89
2022/04/30 10:01:42;;;;;;;5.43;2.85;;;15.90;69.30;;;;;;4955738;29;20050;-89
2022/04/30 10:04:09;;;;;;;5.63;3.35;;;16.00;68.40;;;;;;4958850;29;20127;-88
2022/04/30 10:06:40;;;;;;;6.45;2.67;;;16.20;67.80;;;;;;4947079;29;20038;-89
2022/04/30 10:09:11;;;;;;;10.75;2.80;;;16.30;66.90;;;;;;4950644;28;20031;-87
2022/04/30 10:12:00;;;;;;;5.40;2.70;;;16.40;65.50;;;;;;4952632;28;20114;-88
2022/04/30 10:14:38;;;;;;;4.03;2.20;;;16.40;64.90;;;;;;4938442;29;20172;-88
2022/04/30 10:17:13;;;;;;;8.77;3.30;;;16.50;64.80;;;;;;4930589;29;20163;-88
2022/04/30 10:19:40;;;;;;;5.35;3.28;;;16.70;64.50;;;;;;4946779;29;20162;-87
2022/04/30 10:22:13;;;;;;;11.48;3.35;;;16.80;63.70;;;;;;4973069;28;20092;-89
2022/04/30 10:24:45;;;;;;;4.68;2.63;;;17.00;63.50;;;;;;4979489;28;20033;-90
2022/04/30 10:27:11;;;;;;;6.57;3.75;;;17.20;63.60;;;;;;4979182;28;20026;-89
2022/04/30 10:29:37;;;;;;;7.70;3.70;;;17.40;63.20;;;;;;4979606;28;20041;-89
2022/04/30 10:32:04;;;;;;;7.45;3.35;;;17.50;62.90;;;;;;4981329;28;20022;-90
2022/04/30 10:34:31;;;;;;;8.52;3.45;;;17.70;62.70;;;;;;4983307;28;20042;-89
2022/04/30 10:37:01;;;;;;;11.05;3.30;;;17.80;62.30;;;;;;4986814;28;20031;-89
2022/04/30 10:39:27;;;;;;;11.52;3.78;;;17.90;62.10;;;;;;4995999;28;20022;-91
2022/04/30 10:41:53;;;;;;;6.25;3.40;;;17.90;61.30;;;;;;4988713;28;20026;-91
2022/04/30 10:44:35;;;;;;;4.78;3.83;;;17.90;61.20;;;;;;4980078;28;20061;-90
2022/04/30 10:47:13;;;;;;;5.63;3.10;;;17.90;60.50;;;;;;4979954;28;20526;-89
2022/04/30 10:49:39;;;;;;;5.38;3.28;;;17.90;60.60;;;;;;4977490;28;20081;-88
2022/04/30 10:52:06;;;;;;;6.60;3.58;;;18.00;60.90;;;;;;4978810;28;20031;-90
2022/04/30 10:54:34;;;;;;;5.10;3.03;;;18.10;60.40;;;;;;4979051;28;20125;-89
2022/04/30 10:57:04;;;;;;;5.70;3.30;;;18.20;60.10;;;;;;4970579;28;20122;-88
2022/04/30 10:59:30;;;;;;;8.23;3.20;;;18.40;60.20;;;;;;4979715;28;20031;-92
2022/04/30 11:01:56;;;;;;;8.88;2.85;;;18.60;59.90;;;;;;4981245;28;20035;-88
2022/04/30 11:04:23;;;;;;;10.15;3.13;;;18.70;59.40;;;;;;4987225;28;20026;-91
2022/04/30 11:06:52;;;;;;;6.80;3.15;;;18.70;59.30;;;;;;4992329;28;20037;-90
2022/04/30 11:09:19;;;;;;;4.35;2.63;;;18.80;58.80;;;;;;4982212;28;20030;-90
2022/04/30 11:11:49;;;;;;;6.18;2.90;;;18.80;58.10;;;;;;4980243;28;20023;-90
2022/04/30 11:14:16;;;;;;;7.95;3.63;;;18.80;58.50;;;;;;4979795;28;20093;-89
2022/04/30 11:16:49;;;;;;;6.13;2.58;;;18.90;58.10;;;;;;4980227;28;20037;-88
2022/04/30 11:19:20;;;;;;;8.25;2.80;;;19.00;58.30;;;;;;4981357;28;20121;-89
2022/04/30 11:21:54;;;;;;;5.63;2.90;;;19.10;57.30;;;;;;4987444;28;20018;-89
2022/04/30 11:24:31;;;;;;;4.13;2.90;;;18.90;56.70;;;;;;4978783;28;20034;-90
2022/04/30 11:27:04;;;;;;;4.22;3.33;;;18.70;56.70;;;;;;4999656;28;20022;-91
2022/04/30 11:29:38;;;;;;;5.15;3.53;;;18.70;57.00;;;;;;4990710;28;20125;-91
2022/04/30 11:32:05;;;;;;;7.18;3.40;;;18.70;56.40;;;;;;5003662;28;20036;-91
2022/04/30 11:34:31;;;;;;;4.70;2.90;;;18.80;56.70;;;;;;5005444;28;20072;-92
2022/04/30 11:36:59;;;;;;;4.63;3.03;;;19.00;56.60;;;;;;5000327;28;20026;-90
2022/04/30 11:39:26;;;;;;;5.38;3.13;;;19.10;56.20;;;;;;4985853;28;20030;-92
2022/04/30 11:41:56;;;;;;;6.50;3.60;;;19.30;56.00;;;;;;5002518;28;20025;-92
2022/04/30 11:44:24;;;;;;;6.30;3.77;;;19.30;55.70;;;;;;4998439;28;20022;-92
2022/04/30 11:46:51;;;;;;;7.63;3.30;;;19.40;55.50;;;;;;5008203;28;20031;-90
2022/04/30 11:49:19;;;;;;;7.57;3.20;;;19.50;55.60;;;;;;4992349;28;20049;-90
2022/04/30 11:51:46;;;;;;;8.65;3.55;;;19.80;55.30;;;;;;5007422;28;20414;-90
2022/04/30 11:54:16;;;;;;;4.78;2.70;;;19.90;54.60;;;;;;4982828;28;20133;-90
2022/04/30 11:56:43;;;;;;;4.35;3.05;;;19.80;54.20;;;;;;4978938;28;20019;-90
2022/04/30 11:59:09;;;;;;;7.15;3.67;;;20.00;54.10;;;;;;4995239;28;20089;-90
2022/04/30 12:01:39;;;;;;;7.15;3.70;;;20.10;53.40;;;;;;4977450;28;20536;-89
2022/04/30 12:04:11;;;;;;;5.07;3.53;;;20.30;53.20;;;;;;4976795;28;20026;-88
2022/04/30 12:06:39;;;;;;;5.35;3.65;;;20.40;53.00;;;;;;4994446;28;20087;-88
2022/04/30 12:09:20;;;;;;;3.83;2.90;;;20.60;53.30;;;;;;4977015;28;20026;-89
2022/04/30 12:11:53;;;;;;;;;;;20.90;53.40;;;;;;4961013;28;20117;-90
2022/04/30 12:14:19;;;;;;;5.70;3.47;;;21.20;53.10;;;;;;4977219;28;19953;-89
2022/04/30 12:16:46;;;;;;;7.28;4.03;;;21.40;52.40;;;;;;4977455;28;20030;-87
2022/04/30 12:25:15;;;;;;;7.53;4.53;;;21.50;52.40;;;;;;4998170;28;20089;-89
2022/04/30 12:28:02;;;;;;;8.13;5.32;;;21.30;52.50;;;;;;5010673;28;20033;-89
2022/04/30 12:30:28;;;;;;;8.27;5.40;;;21.00;52.70;;;;;;4980266;28;20034;-88
2022/04/30 12:32:59;;;;;;;8.38;5.00;;;20.70;53.10;;;;;;4978240;28;20022;-88
2022/04/30 12:35:25;;;;;;;;;;;20.60;53.40;;;;;;4978959;28;20050;-88
2022/04/30 12:38:08;;;;;;;7.57;4.75;;;20.50;53.60;;;;;;4978672;28;20012;-88
2022/04/30 12:40:41;;;;;;;8.35;5.47;;;20.40;53.80;;;;;;4978453;28;20061;-88
2022/04/30 12:43:07;;;;;;;11.48;5.60;;;20.40;53.80;;;;;;4977716;28;20542;-89
2022/04/30 12:45:33;;;;;;;10.32;5.03;;;20.30;53.70;;;;;;4979214;28;20038;-88
2022/04/30 12:48:01;;;;;;;10.95;5.32;;;20.10;54.40;;;;;;4978715;28;20113;-88
2022/04/30 12:50:27;;;;;;;9.18;5.88;;;20.00;53.70;;;;;;4977526;28;20523;-89
2022/04/30 12:52:53;;;;;;;6.53;5.03;;;19.70;53.80;;;;;;4978502;28;20076;-89
2022/04/30 12:55:20;;;;;;;7.65;4.80;;;19.50;54.10;;;;;;4977675;28;20432;-90
2022/04/30 12:57:46;;;;;;;8.95;5.03;;;19.40;54.50;;;;;;4979760;28;20026;-88
2022/04/30 13:00:13;;;;;;;8.60;4.85;;;19.30;54.50;;;;;;4996875;28;20089;-87
2022/04/30 13:02:40;;;;;;;8.82;4.38;;;19.30;54.60;;;;;;4979438;28;20109;-88
2022/04/30 13:05:08;;;;;;;6.72;4.40;;;19.10;54.60;;;;;;4979304;28;20030;-88
2022/04/30 13:07:34;;;;;;;9.10;3.88;;;19.20;54.80;;;;;;4981194;28;20041;-89
2022/04/30 13:15:28;;;;;;;6.15;4.20;;;19.00;54.60;;;;;;5003447;28;20074;-88
2022/04/30 13:17:58;;;;;;;7.85;4.15;;;19.10;54.70;;;;;;4982779;28;20018;-89
2022/04/30 13:20:25;;;;;;;9.17;4.23;;;19.40;54.70;;;;;;4997689;28;20108;-87
2022/04/30 13:22:52;;;;;;;8.05;3.90;;;19.70;54.50;;;;;;4996487;28;20302;-89
2022/04/30 13:25:18;;;;;;;5.38;3.55;;;19.90;53.80;;;;;;4997030;28;20069;-88
2022/04/30 13:27:45;;;;;;;4.97;3.78;;;19.80;53.30;;;;;;4987556;28;20027;-88
2022/04/30 13:30:12;;;;;;;5.68;3.83;;;19.80;53.20;;;;;;4989490;28;20084;-88
2022/04/30 13:32:37;;;;;;;8.15;4.30;;;19.90;53.30;;;;;;4982954;28;20027;-87